Holman, New Mexico
Current Conditions -  °F | °C
As of 12:35 PM on Friday 24 Oct 2014 (Local Time) from KAXX Reporting Station
Clear Clear  
Wind Chill: 67°   Ceiling: Unl
Heat Index: 67°   Visibility: 10mi
Dew Point: 21°   Wind: 10mph
Humidity: 17%   Direction: 240°WSW
Pressure: 30.44"   Gusts: NA
Location:  36.04°N, 105.39°W
Report Text: KAXX 241835Z AUTO 24009KT 10SM CLR 20/M06 A3044 RMK AO2 T01951061
Loading
Personal Weather Stations






























Interactive Weather Map
Tropical Storm Tracking
New forecast layout! Learn more

10-Day Weather Forecast

Advertisements
Track Severe Weather on mobile